תחנות METAR סמוכות

 

LIBV - Gioia Del Colle, Italy
Distance from station: 'דדמ 15km
עודכן: 26/06/2019 13:55
Few Clouds
Few Clouds
 רוח מ 'צ
רוח: 'צ 24 km/h
טמפרטורה: 28°C
עומס חום: 28°C
נקודת הטל: 16°C
לחות: 48%
עננים: Few Clouds
ראות: 10 km
Cloud details: Few Clouds 914 m
2019/06/26 11:55 LIBV 261155Z 36013KT 9999 FEW030 28/16 Q//// RMK FEW VIS MIN 9999 WIND THR32 02012KT WIND THR14 36014KT BLU
LIBD - Bari/Palese Macc, Italy
Distance from station: 'צצמ 26km
עודכן: 26/06/2019 13:50
בהיר
בהיר
 רוח מ 'צמ
רוח: 'צמ 20 km/h
טמפרטורה: 29°C
עומס חום: 31°C
נקודת הטל: 20°C
לחות: 58%
ברומטר: 1020 hPa
סיכום: בהיר
ראות: greater than 10 km
2019/06/26 11:50 LIBD 261150Z 04011KT CAVOK 29/20 Q1020
 
LIBH - Marina Di Ginosa, Italy
Distance from station: 'ד 53km
עודכן: 26/06/2019 13:55
Few Clouds
Few Clouds
 רוח מ 'צצמ
רוח: 'צצמ 24 km/h
טמפרטורה: 36°C
נקודת הטל: 20°C
לחות: 39%
ברומטר: 1017 hPa
עננים: Few Clouds
ראות: 10 km
Cloud details: Few Clouds 762 m
2019/06/26 11:55 LIBH 261155Z 02013KT 9999 FEW025TCU 36/20 Q1017 RMK FEW QUK 3 QUL 2 NE VIS MAR 25 KM VIS MIN 9999
LIBG - Grottaglie(Civ/A, Italy
Distance from station: 'דמ 61km
עודכן: 26/06/2019 13:50
בהיר
בהיר
 רוח מ 'צצמ
רוח: 'צצמ 30 km/h
טמפרטורה: 32°C
עומס חום: 34°C
נקודת הטל: 19°C
לחות: 46%
ברומטר: 1017 hPa
סיכום: בהיר
ראות: greater than 10 km
2019/06/26 11:50 LIBG 261150Z 02016KT CAVOK 32/19 Q1017
 
LIBR - Brindisi/Casale, Italy
Distance from station: 'מדמ 96km
עודכן: 26/06/2019 13:50
בהיר
בהיר
 רוח מ 'צצמ
רוח: 'צצמ 24 km/h
טמפרטורה: 29°C
עומס חום: 31°C
נקודת הטל: 21°C
לחות: 62%
ברומטר: 1018 hPa
סיכום: בהיר
ראות: greater than 10 km
2019/06/26 11:50 LIBR 261150Z 34013KT CAVOK 29/21 Q1018
LIBA - Amendola (it-Afb, Italy
Distance from station: 'צמ 118km
עודכן: 26/06/2019 13:55
Few Clouds
Few Clouds
 רוח מ 'צמ
רוח: 'צמ 17 km/h
טמפרטורה: 34°C
נקודת הטל: 15°C
לחות: 32%
ברומטר: 1019 hPa
עננים: Few Clouds
ראות: 10 km
Cloud details: Few Clouds 1829 m
2019/06/26 11:55 LIBA 261155Z 04009KT 9999 FEW060 34/15 Q1019 RMK FEW VIS MIN 9999 WIND THR11 04009G19KT WIND THR29 /////KT BLU
 
LIBF - Foggia/Gino Lisa, Italy
Distance from station: 'מצמ 126km
עודכן: 26/06/2019 13:50
בהיר
בהיר
 רוח מ 'צצמ
רוח: 'צצמ 33 km/h
טמפרטורה: 32°C
עומס חום: 33°C
נקודת הטל: 17°C
לחות: 41%
ברומטר: 1019 hPa
סיכום: בהיר
ראות: greater than 10 km
2019/06/26 11:50 LIBF 261150Z 33018KT CAVOK 32/17 Q1019
LIBN - Lecce (it-Afb), Italy
Distance from station: 'דמ 132km
עודכן: 26/06/2019 13:55
בהיר
בהיר
 רוח מ 'צ
רוח: 'צ 26 km/h
טמפרטורה: 32°C
עומס חום: 36°C
נקודת הטל: 21°C
לחות: 52%
ברומטר: 1017 hPa
סיכום: בהיר
ראות: greater than 10 km
2019/06/26 11:55 LIBN 261155Z 01014KT CAVOK 32/21 Q1017 RMK SCT SCT200 VIS MIN 9999 WIND THR14 01014KT WIND THR32 01014KT BLU